sensor_id;sensor_type;location;lat;lon;timestamp;temperature;humidity
23562;DHT22;11959;49.418;8.728;2023-06-14T00:00:14;19.20;82.20
23562;DHT22;11959;49.418;8.728;2023-06-14T00:02:40;19.20;82.30
23562;DHT22;11959;49.418;8.728;2023-06-14T00:05:07;19.20;82.40
23562;DHT22;11959;49.418;8.728;2023-06-14T00:07:35;19.10;82.40
23562;DHT22;11959;49.418;8.728;2023-06-14T00:10:01;19.20;82.60
23562;DHT22;11959;49.418;8.728;2023-06-14T00:12:27;19.10;82.60
23562;DHT22;11959;49.418;8.728;2023-06-14T00:14:52;19.20;82.90
23562;DHT22;11959;49.418;8.728;2023-06-14T00:17:18;19.10;83.00
23562;DHT22;11959;49.418;8.728;2023-06-14T00:19:44;19.10;83.10
23562;DHT22;11959;49.418;8.728;2023-06-14T00:22:09;19.10;83.10
23562;DHT22;11959;49.418;8.728;2023-06-14T00:24:36;19.00;83.30
23562;DHT22;11959;49.418;8.728;2023-06-14T00:27:01;19.00;83.70
23562;DHT22;11959;49.418;8.728;2023-06-14T00:29:27;19.00;83.70
23562;DHT22;11959;49.418;8.728;2023-06-14T00:31:52;19.00;83.80
23562;DHT22;11959;49.418;8.728;2023-06-14T00:34:18;18.90;84.60
23562;DHT22;11959;49.418;8.728;2023-06-14T00:36:43;18.80;85.60
23562;DHT22;11959;49.418;8.728;2023-06-14T00:39:09;18.80;87.40
23562;DHT22;11959;49.418;8.728;2023-06-14T00:41:35;18.70;86.90
23562;DHT22;11959;49.418;8.728;2023-06-14T00:44:00;18.60;87.30
23562;DHT22;11959;49.418;8.728;2023-06-14T00:46:26;18.50;86.20
23562;DHT22;11959;49.418;8.728;2023-06-14T00:48:52;18.50;85.80
23562;DHT22;11959;49.418;8.728;2023-06-14T00:51:18;18.50;85.90
23562;DHT22;11959;49.418;8.728;2023-06-14T00:53:44;18.40;85.60
23562;DHT22;11959;49.418;8.728;2023-06-14T00:56:13;18.50;85.90
23562;DHT22;11959;49.418;8.728;2023-06-14T00:58:40;18.50;85.70
23562;DHT22;11959;49.418;8.728;2023-06-14T01:01:06;18.50;85.90
23562;DHT22;11959;49.418;8.728;2023-06-14T01:03:32;18.40;86.00
23562;DHT22;11959;49.418;8.728;2023-06-14T01:06:23;18.40;87.20
23562;DHT22;11959;49.418;8.728;2023-06-14T01:12:21;18.20;88.60
23562;DHT22;11959;49.418;8.728;2023-06-14T01:14:51;18.20;88.30
23562;DHT22;11959;49.418;8.728;2023-06-14T01:17:19;18.10;88.90
23562;DHT22;11959;49.418;8.728;2023-06-14T01:19:46;18.00;89.00
23562;DHT22;11959;49.418;8.728;2023-06-14T01:22:12;18.00;89.30
23562;DHT22;11959;49.418;8.728;2023-06-14T01:24:37;17.90;88.40
23562;DHT22;11959;49.418;8.728;2023-06-14T01:27:05;18.00;89.80
23562;DHT22;11959;49.418;8.728;2023-06-14T01:29:33;17.90;88.70
23562;DHT22;11959;49.418;8.728;2023-06-14T01:32:01;17.90;88.90
23562;DHT22;11959;49.418;8.728;2023-06-14T01:34:27;17.80;89.10
23562;DHT22;11959;49.418;8.728;2023-06-14T01:36:53;17.90;90.70
23562;DHT22;11959;49.418;8.728;2023-06-14T01:39:23;17.80;90.90
23562;DHT22;11959;49.418;8.728;2023-06-14T01:41:49;17.70;90.90
23562;DHT22;11959;49.418;8.728;2023-06-14T01:44:17;17.70;91.10
23562;DHT22;11959;49.418;8.728;2023-06-14T01:46:44;17.60;91.40
23562;DHT22;11959;49.418;8.728;2023-06-14T01:49:11;17.50;91.50
23562;DHT22;11959;49.418;8.728;2023-06-14T01:51:36;17.50;91.20
23562;DHT22;11959;49.418;8.728;2023-06-14T01:54:02;17.40;91.10
23562;DHT22;11959;49.418;8.728;2023-06-14T01:56:28;17.40;90.90
23562;DHT22;11959;49.418;8.728;2023-06-14T01:58:53;17.40;90.60
23562;DHT22;11959;49.418;8.728;2023-06-14T02:01:20;17.30;90.70
23562;DHT22;11959;49.418;8.728;2023-06-14T02:03:47;17.30;91.00
23562;DHT22;11959;49.418;8.728;2023-06-14T02:06:13;17.30;91.00
23562;DHT22;11959;49.418;8.728;2023-06-14T02:08:41;17.20;90.70
23562;DHT22;11959;49.418;8.728;2023-06-14T02:11:07;17.20;90.60
23562;DHT22;11959;49.418;8.728;2023-06-14T02:13:32;17.20;90.70
23562;DHT22;11959;49.418;8.728;2023-06-14T02:15:59;17.20;90.90
23562;DHT22;11959;49.418;8.728;2023-06-14T02:18:25;17.20;90.60
23562;DHT22;11959;49.418;8.728;2023-06-14T02:20:51;17.20;90.40
23562;DHT22;11959;49.418;8.728;2023-06-14T02:23:17;17.20;90.70
23562;DHT22;11959;49.418;8.728;2023-06-14T02:25:42;17.20;92.20
23562;DHT22;11959;49.418;8.728;2023-06-14T02:28:10;17.20;92.20
23562;DHT22;11959;49.418;8.728;2023-06-14T02:30:36;17.10;91.80
23562;DHT22;11959;49.418;8.728;2023-06-14T02:33:01;17.10;91.70
23562;DHT22;11959;49.418;8.728;2023-06-14T02:35:29;17.10;91.50
23562;DHT22;11959;49.418;8.728;2023-06-14T02:37:55;17.00;91.20
23562;DHT22;11959;49.418;8.728;2023-06-14T02:40:20;17.00;90.70
23562;DHT22;11959;49.418;8.728;2023-06-14T02:42:46;17.00;90.10
23562;DHT22;11959;49.418;8.728;2023-06-14T02:45:12;17.10;90.80
23562;DHT22;11959;49.418;8.728;2023-06-14T02:47:37;17.10;90.50
23562;DHT22;11959;49.418;8.728;2023-06-14T02:50:03;17.20;89.70
23562;DHT22;11959;49.418;8.728;2023-06-14T02:52:29;17.30;89.40
23562;DHT22;11959;49.418;8.728;2023-06-14T02:54:55;17.30;89.50
23562;DHT22;11959;49.418;8.728;2023-06-14T02:57:22;17.30;89.30
23562;DHT22;11959;49.418;8.728;2023-06-14T02:59:48;17.40;89.30
23562;DHT22;11959;49.418;8.728;2023-06-14T03:02:14;17.40;88.80
23562;DHT22;11959;49.418;8.728;2023-06-14T03:04:40;17.40;88.90
23562;DHT22;11959;49.418;8.728;2023-06-14T03:07:06;17.40;88.70
23562;DHT22;11959;49.418;8.728;2023-06-14T03:09:38;17.50;88.50
23562;DHT22;11959;49.418;8.728;2023-06-14T03:12:05;17.50;88.50
23562;DHT22;11959;49.418;8.728;2023-06-14T03:14:32;17.50;88.40
23562;DHT22;11959;49.418;8.728;2023-06-14T03:16:58;17.50;88.60
23562;DHT22;11959;49.418;8.728;2023-06-14T03:19:26;17.60;88.70
23562;DHT22;11959;49.418;8.728;2023-06-14T03:21:52;17.60;88.90
23562;DHT22;11959;49.418;8.728;2023-06-14T03:24:19;17.50;88.90
23562;DHT22;11959;49.418;8.728;2023-06-14T03:26:45;17.50;89.50
23562;DHT22;11959;49.418;8.728;2023-06-14T03:29:10;17.50;89.50
23562;DHT22;11959;49.418;8.728;2023-06-14T03:31:41;17.50;89.30
23562;DHT22;11959;49.418;8.728;2023-06-14T03:34:06;17.50;89.20
23562;DHT22;11959;49.418;8.728;2023-06-14T03:36:32;17.50;89.60
23562;DHT22;11959;49.418;8.728;2023-06-14T03:38:59;17.50;89.90
23562;DHT22;11959;49.418;8.728;2023-06-14T03:41:25;17.50;89.80
23562;DHT22;11959;49.418;8.728;2023-06-14T03:43:51;17.40;89.90
23562;DHT22;11959;49.418;8.728;2023-06-14T03:46:17;17.40;90.10
23562;DHT22;11959;49.418;8.728;2023-06-14T03:48:42;17.40;90.10
23562;DHT22;11959;49.418;8.728;2023-06-14T03:51:08;17.40;90.20
23562;DHT22;11959;49.418;8.728;2023-06-14T03:53:34;17.40;90.50
23562;DHT22;11959;49.418;8.728;2023-06-14T03:56:01;17.30;90.50
23562;DHT22;11959;49.418;8.728;2023-06-14T03:58:27;17.30;90.10
23562;DHT22;11959;49.418;8.728;2023-06-14T04:00:53;17.30;90.80
23562;DHT22;11959;49.418;8.728;2023-06-14T04:03:19;17.30;91.00
23562;DHT22;11959;49.418;8.728;2023-06-14T04:05:45;17.20;91.10
23562;DHT22;11959;49.418;8.728;2023-06-14T04:08:14;17.20;91.30
23562;DHT22;11959;49.418;8.728;2023-06-14T04:10:41;17.10;90.80
23562;DHT22;11959;49.418;8.728;2023-06-14T04:13:07;17.10;90.80
23562;DHT22;11959;49.418;8.728;2023-06-14T04:15:32;17.20;91.10
23562;DHT22;11959;49.418;8.728;2023-06-14T04:17:58;17.20;91.60
23562;DHT22;11959;49.418;8.728;2023-06-14T04:20:24;17.20;91.80
23562;DHT22;11959;49.418;8.728;2023-06-14T04:22:51;17.20;91.40
23562;DHT22;11959;49.418;8.728;2023-06-14T04:25:16;17.20;91.30
23562;DHT22;11959;49.418;8.728;2023-06-14T04:27:42;17.30;91.30
23562;DHT22;11959;49.418;8.728;2023-06-14T04:30:09;17.30;91.40
23562;DHT22;11959;49.418;8.728;2023-06-14T04:32:35;17.40;91.40
23562;DHT22;11959;49.418;8.728;2023-06-14T04:35:08;17.40;91.90
23562;DHT22;11959;49.418;8.728;2023-06-14T04:37:34;17.50;92.60
23562;DHT22;11959;49.418;8.728;2023-06-14T04:40:00;17.50;92.60
23562;DHT22;11959;49.418;8.728;2023-06-14T04:42:26;17.50;92.00
23562;DHT22;11959;49.418;8.728;2023-06-14T04:44:57;17.50;92.10
23562;DHT22;11959;49.418;8.728;2023-06-14T04:47:23;17.50;92.40
23562;DHT22;11959;49.418;8.728;2023-06-14T04:49:50;17.60;92.00
23562;DHT22;11959;49.418;8.728;2023-06-14T04:52:19;17.60;91.40
23562;DHT22;11959;49.418;8.728;2023-06-14T04:54:46;17.70;93.10
23562;DHT22;11959;49.418;8.728;2023-06-14T04:57:12;17.70;92.80
23562;DHT22;11959;49.418;8.728;2023-06-14T04:59:43;17.70;92.20
23562;DHT22;11959;49.418;8.728;2023-06-14T05:02:12;17.80;92.40
23562;DHT22;11959;49.418;8.728;2023-06-14T05:04:38;17.90;91.80
23562;DHT22;11959;49.418;8.728;2023-06-14T05:07:07;17.90;91.20
23562;DHT22;11959;49.418;8.728;2023-06-14T05:09:33;17.90;91.00
23562;DHT22;11959;49.418;8.728;2023-06-14T05:11:59;18.00;91.20
23562;DHT22;11959;49.418;8.728;2023-06-14T05:14:25;18.10;90.60
23562;DHT22;11959;49.418;8.728;2023-06-14T05:16:52;18.20;90.50
23562;DHT22;11959;49.418;8.728;2023-06-14T05:19:18;18.30;90.30
23562;DHT22;11959;49.418;8.728;2023-06-14T05:21:43;18.30;90.30
23562;DHT22;11959;49.418;8.728;2023-06-14T05:24:10;18.40;90.10
23562;DHT22;11959;49.418;8.728;2023-06-14T05:26:36;18.40;90.40
23562;DHT22;11959;49.418;8.728;2023-06-14T05:29:02;18.60;90.10
23562;DHT22;11959;49.418;8.728;2023-06-14T05:31:28;18.60;90.30
23562;DHT22;11959;49.418;8.728;2023-06-14T05:33:54;18.60;91.00
23562;DHT22;11959;49.418;8.728;2023-06-14T05:36:20;18.60;90.50
23562;DHT22;11959;49.418;8.728;2023-06-14T05:38:48;18.70;90.10
23562;DHT22;11959;49.418;8.728;2023-06-14T05:41:14;18.70;90.20
23562;DHT22;11959;49.418;8.728;2023-06-14T05:43:40;18.80;90.30
23562;DHT22;11959;49.418;8.728;2023-06-14T05:46:05;18.90;90.00
23562;DHT22;11959;49.418;8.728;2023-06-14T05:48:31;18.90;90.20
23562;DHT22;11959;49.418;8.728;2023-06-14T05:50:57;19.00;90.20
23562;DHT22;11959;49.418;8.728;2023-06-14T05:53:23;19.10;90.10
23562;DHT22;11959;49.418;8.728;2023-06-14T05:55:50;19.10;90.20
23562;DHT22;11959;49.418;8.728;2023-06-14T05:58:17;19.20;90.20
23562;DHT22;11959;49.418;8.728;2023-06-14T06:00:42;19.20;89.40
23562;DHT22;11959;49.418;8.728;2023-06-14T06:03:08;19.20;90.10
23562;DHT22;11959;49.418;8.728;2023-06-14T06:05:36;19.30;89.50
23562;DHT22;11959;49.418;8.728;2023-06-14T06:08:02;19.40;90.00
23562;DHT22;11959;49.418;8.728;2023-06-14T06:10:27;19.50;89.90
23562;DHT22;11959;49.418;8.728;2023-06-14T06:12:53;19.50;90.20
23562;DHT22;11959;49.418;8.728;2023-06-14T06:15:20;19.60;90.00
23562;DHT22;11959;49.418;8.728;2023-06-14T06:17:46;19.70;89.90
23562;DHT22;11959;49.418;8.728;2023-06-14T06:20:12;19.80;89.60
23562;DHT22;11959;49.418;8.728;2023-06-14T06:22:38;19.90;88.60
23562;DHT22;11959;49.418;8.728;2023-06-14T06:25:04;19.90;89.10
23562;DHT22;11959;49.418;8.728;2023-06-14T06:27:30;20.00;88.60
23562;DHT22;11959;49.418;8.728;2023-06-14T06:29:55;20.10;89.10
23562;DHT22;11959;49.418;8.728;2023-06-14T06:32:21;20.20;88.50
23562;DHT22;11959;49.418;8.728;2023-06-14T06:34:47;20.20;87.50
23562;DHT22;11959;49.418;8.728;2023-06-14T06:37:13;20.20;88.00
23562;DHT22;11959;49.418;8.728;2023-06-14T06:39:39;20.30;88.20
23562;DHT22;11959;49.418;8.728;2023-06-14T06:42:05;20.30;87.50
23562;DHT22;11959;49.418;8.728;2023-06-14T06:44:32;20.30;87.70
23562;DHT22;11959;49.418;8.728;2023-06-14T06:46:57;20.30;88.10
23562;DHT22;11959;49.418;8.728;2023-06-14T06:49:23;20.30;88.00
23562;DHT22;11959;49.418;8.728;2023-06-14T06:52:03;20.40;88.80
23562;DHT22;11959;49.418;8.728;2023-06-14T06:54:29;20.50;88.50
23562;DHT22;11959;49.418;8.728;2023-06-14T06:56:55;20.50;87.70
23562;DHT22;11959;49.418;8.728;2023-06-14T06:59:21;20.50;87.30
23562;DHT22;11959;49.418;8.728;2023-06-14T07:01:47;20.50;87.60
23562;DHT22;11959;49.418;8.728;2023-06-14T07:04:13;20.50;88.30
23562;DHT22;11959;49.418;8.728;2023-06-14T07:06:39;20.50;86.60
23562;DHT22;11959;49.418;8.728;2023-06-14T07:09:04;20.50;86.60
23562;DHT22;11959;49.418;8.728;2023-06-14T07:11:33;20.60;87.50
23562;DHT22;11959;49.418;8.728;2023-06-14T07:13:59;20.60;87.40
23562;DHT22;11959;49.418;8.728;2023-06-14T07:16:25;20.60;87.40
23562;DHT22;11959;49.418;8.728;2023-06-14T07:18:51;20.70;86.80
23562;DHT22;11959;49.418;8.728;2023-06-14T07:21:17;20.60;86.60
23562;DHT22;11959;49.418;8.728;2023-06-14T07:23:43;20.60;86.60
23562;DHT22;11959;49.418;8.728;2023-06-14T07:26:09;20.70;86.50
23562;DHT22;11959;49.418;8.728;2023-06-14T07:28:34;20.70;86.80
23562;DHT22;11959;49.418;8.728;2023-06-14T07:31:01;20.80;86.10
23562;DHT22;11959;49.418;8.728;2023-06-14T07:33:26;20.90;86.60
23562;DHT22;11959;49.418;8.728;2023-06-14T07:35:52;20.90;86.50
23562;DHT22;11959;49.418;8.728;2023-06-14T07:38:18;20.90;85.90
23562;DHT22;11959;49.418;8.728;2023-06-14T07:40:44;20.90;86.10
23562;DHT22;11959;49.418;8.728;2023-06-14T07:43:09;21.00;85.70
23562;DHT22;11959;49.418;8.728;2023-06-14T07:45:36;21.00;85.60
23562;DHT22;11959;49.418;8.728;2023-06-14T07:48:03;21.10;86.00
23562;DHT22;11959;49.418;8.728;2023-06-14T07:50:29;21.20;84.60
23562;DHT22;11959;49.418;8.728;2023-06-14T07:52:54;21.30;85.30
23562;DHT22;11959;49.418;8.728;2023-06-14T07:55:20;21.40;85.30
23562;DHT22;11959;49.418;8.728;2023-06-14T07:57:46;21.50;84.40
23562;DHT22;11959;49.418;8.728;2023-06-14T08:00:12;21.60;85.00
23562;DHT22;11959;49.418;8.728;2023-06-14T08:02:41;21.60;84.50
23562;DHT22;11959;49.418;8.728;2023-06-14T08:05:09;21.80;84.10
23562;DHT22;11959;49.418;8.728;2023-06-14T08:07:36;21.90;84.00
23562;DHT22;11959;49.418;8.728;2023-06-14T08:10:03;21.90;83.80
23562;DHT22;11959;49.418;8.728;2023-06-14T08:12:29;22.00;83.40
23562;DHT22;11959;49.418;8.728;2023-06-14T08:14:55;22.10;83.50
23562;DHT22;11959;49.418;8.728;2023-06-14T08:17:20;22.20;83.50
23562;DHT22;11959;49.418;8.728;2023-06-14T08:19:46;22.30;83.70
23562;DHT22;11959;49.418;8.728;2023-06-14T08:22:12;22.40;83.30
23562;DHT22;11959;49.418;8.728;2023-06-14T08:24:38;22.50;83.10
23562;DHT22;11959;49.418;8.728;2023-06-14T08:27:05;22.60;82.30
23562;DHT22;11959;49.418;8.728;2023-06-14T08:29:31;22.70;83.00
23562;DHT22;11959;49.418;8.728;2023-06-14T08:31:57;22.70;82.50
23562;DHT22;11959;49.418;8.728;2023-06-14T08:34:22;22.80;81.80
23562;DHT22;11959;49.418;8.728;2023-06-14T08:36:51;22.90;80.80
23562;DHT22;11959;49.418;8.728;2023-06-14T08:39:17;22.90;80.80
23562;DHT22;11959;49.418;8.728;2023-06-14T08:41:46;23.00;81.90
23562;DHT22;11959;49.418;8.728;2023-06-14T08:44:15;23.20;82.00
23562;DHT22;11959;49.418;8.728;2023-06-14T08:46:41;23.30;81.90
23562;DHT22;11959;49.418;8.728;2023-06-14T08:49:08;23.40;81.10
23562;DHT22;11959;49.418;8.728;2023-06-14T08:51:36;23.50;81.60
23562;DHT22;11959;49.418;8.728;2023-06-14T08:54:03;23.60;81.30
23562;DHT22;11959;49.418;8.728;2023-06-14T08:56:30;23.60;80.20
23562;DHT22;11959;49.418;8.728;2023-06-14T08:58:57;23.60;80.30
23562;DHT22;11959;49.418;8.728;2023-06-14T09:01:26;23.70;81.10
23562;DHT22;11959;49.418;8.728;2023-06-14T09:03:52;23.80;80.10
23562;DHT22;11959;49.418;8.728;2023-06-14T09:06:20;23.80;80.20
23562;DHT22;11959;49.418;8.728;2023-06-14T09:08:48;23.80;79.80
23562;DHT22;11959;49.418;8.728;2023-06-14T09:11:15;23.70;80.60
23562;DHT22;11959;49.418;8.728;2023-06-14T09:13:41;23.70;79.70
23562;DHT22;11959;49.418;8.728;2023-06-14T09:16:08;23.80;80.00
23562;DHT22;11959;49.418;8.728;2023-06-14T09:18:47;23.80;79.60
23562;DHT22;11959;49.418;8.728;2023-06-14T09:21:17;23.80;79.70
23562;DHT22;11959;49.418;8.728;2023-06-14T09:23:44;23.90;79.40
23562;DHT22;11959;49.418;8.728;2023-06-14T09:28:45;24.00;78.60
23562;DHT22;11959;49.418;8.728;2023-06-14T09:31:15;24.20;77.60
23562;DHT22;11959;49.418;8.728;2023-06-14T09:33:45;24.30;76.60
23562;DHT22;11959;49.418;8.728;2023-06-14T09:36:21;24.30;76.90
23562;DHT22;11959;49.418;8.728;2023-06-14T09:39:01;24.40;76.70
23562;DHT22;11959;49.418;8.728;2023-06-14T09:41:40;24.60;77.90
23562;DHT22;11959;49.418;8.728;2023-06-14T09:44:07;24.50;76.10
23562;DHT22;11959;49.418;8.728;2023-06-14T09:46:34;24.70;77.10
23562;DHT22;11959;49.418;8.728;2023-06-14T09:49:01;24.80;76.10
23562;DHT22;11959;49.418;8.728;2023-06-14T09:51:27;24.90;75.60
23562;DHT22;11959;49.418;8.728;2023-06-14T09:53:58;25.00;76.50
23562;DHT22;11959;49.418;8.728;2023-06-14T09:56:31;25.10;76.40
23562;DHT22;11959;49.418;8.728;2023-06-14T09:58:58;25.20;76.10
23562;DHT22;11959;49.418;8.728;2023-06-14T10:01:25;25.40;75.70
23562;DHT22;11959;49.418;8.728;2023-06-14T10:03:55;25.50;75.50
23562;DHT22;11959;49.418;8.728;2023-06-14T10:06:26;25.50;74.60
23562;DHT22;11959;49.418;8.728;2023-06-14T10:08:57;25.60;74.70
23562;DHT22;11959;49.418;8.728;2023-06-14T10:11:26;25.40;73.00
23562;DHT22;11959;49.418;8.728;2023-06-14T10:13:55;25.20;74.50
23562;DHT22;11959;49.418;8.728;2023-06-14T10:17:03;25.10;73.80
23562;DHT22;11959;49.418;8.728;2023-06-14T10:19:37;25.10;75.30
23562;DHT22;11959;49.418;8.728;2023-06-14T10:22:30;25.10;74.70
23562;DHT22;11959;49.418;8.728;2023-06-14T10:24:57;24.70;75.10
23562;DHT22;11959;49.418;8.728;2023-06-14T10:27:23;24.90;76.60
23562;DHT22;11959;49.418;8.728;2023-06-14T10:32:20;25.20;76.70
23562;DHT22;11959;49.418;8.728;2023-06-14T10:34:49;25.20;75.90
23562;DHT22;11959;49.418;8.728;2023-06-14T10:37:18;25.10;74.80
23562;DHT22;11959;49.418;8.728;2023-06-14T10:39:45;25.10;75.80
23562;DHT22;11959;49.418;8.728;2023-06-14T10:42:14;25.10;75.10
23562;DHT22;11959;49.418;8.728;2023-06-14T10:47:28;25.50;75.80
23562;DHT22;11959;49.418;8.728;2023-06-14T10:52:33;26.00;74.10
23562;DHT22;11959;49.418;8.728;2023-06-14T10:55:10;26.20;74.10
23562;DHT22;11959;49.418;8.728;2023-06-14T11:00:06;26.50;73.50
23562;DHT22;11959;49.418;8.728;2023-06-14T11:05:52;26.50;74.50
23562;DHT22;11959;49.418;8.728;2023-06-14T11:10:58;26.90;73.90
23562;DHT22;11959;49.418;8.728;2023-06-14T11:13:26;26.90;72.30
23562;DHT22;11959;49.418;8.728;2023-06-14T11:15:52;26.70;73.50
23562;DHT22;11959;49.418;8.728;2023-06-14T11:18:22;26.70;73.80
23562;DHT22;11959;49.418;8.728;2023-06-14T11:20:50;26.80;73.90
23562;DHT22;11959;49.418;8.728;2023-06-14T11:23:16;26.90;73.20
23562;DHT22;11959;49.418;8.728;2023-06-14T11:25:42;26.90;73.50
23562;DHT22;11959;49.418;8.728;2023-06-14T11:28:07;26.90;72.50
23562;DHT22;11959;49.418;8.728;2023-06-14T11:30:33;27.00;73.80
23562;DHT22;11959;49.418;8.728;2023-06-14T11:32:59;27.00;73.30
23562;DHT22;11959;49.418;8.728;2023-06-14T11:35:26;27.00;73.30
23562;DHT22;11959;49.418;8.728;2023-06-14T11:37:55;26.90;73.70
23562;DHT22;11959;49.418;8.728;2023-06-14T11:40:24;27.00;74.20
23562;DHT22;11959;49.418;8.728;2023-06-14T11:43:02;27.00;73.20
23562;DHT22;11959;49.418;8.728;2023-06-14T11:45:28;27.00;72.90
23562;DHT22;11959;49.418;8.728;2023-06-14T11:47:56;27.00;73.10
23562;DHT22;11959;49.418;8.728;2023-06-14T11:50:22;26.80;72.70
23562;DHT22;11959;49.418;8.728;2023-06-14T11:52:54;26.40;73.80
23562;DHT22;11959;49.418;8.728;2023-06-14T11:55:22;26.10;74.10
23562;DHT22;11959;49.418;8.728;2023-06-14T11:57:47;26.00;74.30
23562;DHT22;11959;49.418;8.728;2023-06-14T12:00:13;26.00;75.00
23562;DHT22;11959;49.418;8.728;2023-06-14T12:02:41;26.10;74.70
23562;DHT22;11959;49.418;8.728;2023-06-14T12:05:07;26.40;74.10
23562;DHT22;11959;49.418;8.728;2023-06-14T12:07:39;26.50;73.50
23562;DHT22;11959;49.418;8.728;2023-06-14T12:10:09;26.60;74.20
23562;DHT22;11959;49.418;8.728;2023-06-14T12:12:39;26.70;72.90
23562;DHT22;11959;49.418;8.728;2023-06-14T12:15:06;26.40;73.30
23562;DHT22;11959;49.418;8.728;2023-06-14T12:17:36;26.20;73.60
23562;DHT22;11959;49.418;8.728;2023-06-14T12:20:10;25.90;73.20
23562;DHT22;11959;49.418;8.728;2023-06-14T12:22:37;25.70;73.70
23562;DHT22;11959;49.418;8.728;2023-06-14T12:25:04;25.70;73.90
23562;DHT22;11959;49.418;8.728;2023-06-14T12:27:31;25.70;73.80
23562;DHT22;11959;49.418;8.728;2023-06-14T12:30:03;26.00;74.20
23562;DHT22;11959;49.418;8.728;2023-06-14T12:32:30;26.00;73.00
23562;DHT22;11959;49.418;8.728;2023-06-14T12:34:56;26.00;74.50
23562;DHT22;11959;49.418;8.728;2023-06-14T12:37:23;25.90;74.50
23562;DHT22;11959;49.418;8.728;2023-06-14T12:39:49;25.70;74.40
23562;DHT22;11959;49.418;8.728;2023-06-14T12:42:16;25.60;74.00
23562;DHT22;11959;49.418;8.728;2023-06-14T12:44:41;25.30;74.20
23562;DHT22;11959;49.418;8.728;2023-06-14T12:47:08;25.10;75.50
23562;DHT22;11959;49.418;8.728;2023-06-14T12:49:33;25.10;75.80
23562;DHT22;11959;49.418;8.728;2023-06-14T12:51:59;25.10;75.10
23562;DHT22;11959;49.418;8.728;2023-06-14T12:54:25;25.30;74.20
23562;DHT22;11959;49.418;8.728;2023-06-14T12:56:53;25.50;74.60
23562;DHT22;11959;49.418;8.728;2023-06-14T12:59:20;25.50;73.40
23562;DHT22;11959;49.418;8.728;2023-06-14T13:01:46;25.60;75.30
23562;DHT22;11959;49.418;8.728;2023-06-14T13:04:15;25.60;75.20
23562;DHT22;11959;49.418;8.728;2023-06-14T13:06:40;25.40;75.30
23562;DHT22;11959;49.418;8.728;2023-06-14T13:09:06;25.30;75.70
23562;DHT22;11959;49.418;8.728;2023-06-14T13:11:33;25.20;76.40
23562;DHT22;11959;49.418;8.728;2023-06-14T13:13:59;25.00;76.20
23562;DHT22;11959;49.418;8.728;2023-06-14T13:16:25;25.00;76.60
23562;DHT22;11959;49.418;8.728;2023-06-14T13:18:50;24.90;76.80
23562;DHT22;11959;49.418;8.728;2023-06-14T13:21:16;24.80;77.30
23562;DHT22;11959;49.418;8.728;2023-06-14T13:23:42;24.90;77.40
23562;DHT22;11959;49.418;8.728;2023-06-14T13:26:08;24.80;77.20
23562;DHT22;11959;49.418;8.728;2023-06-14T13:28:34;24.90;76.00
23562;DHT22;11959;49.418;8.728;2023-06-14T13:31:00;25.10;76.10
23562;DHT22;11959;49.418;8.728;2023-06-14T13:33:27;25.20;76.20
23562;DHT22;11959;49.418;8.728;2023-06-14T13:35:54;25.40;77.20
23562;DHT22;11959;49.418;8.728;2023-06-14T13:38:20;25.60;75.30
23562;DHT22;11959;49.418;8.728;2023-06-14T13:40:46;25.70;76.00
23562;DHT22;11959;49.418;8.728;2023-06-14T13:43:11;25.80;75.80
23562;DHT22;11959;49.418;8.728;2023-06-14T13:45:37;25.90;75.90
23562;DHT22;11959;49.418;8.728;2023-06-14T13:48:03;26.00;75.80
23562;DHT22;11959;49.418;8.728;2023-06-14T13:50:29;25.80;74.80
23562;DHT22;11959;49.418;8.728;2023-06-14T13:52:54;25.70;75.10
23562;DHT22;11959;49.418;8.728;2023-06-14T13:55:20;25.60;74.80
23562;DHT22;11959;49.418;8.728;2023-06-14T13:57:45;25.50;75.70
23562;DHT22;11959;49.418;8.728;2023-06-14T14:00:12;25.40;75.10
23562;DHT22;11959;49.418;8.728;2023-06-14T14:02:38;25.30;75.10
23562;DHT22;11959;49.418;8.728;2023-06-14T14:05:05;25.30;75.90
23562;DHT22;11959;49.418;8.728;2023-06-14T14:07:32;25.20;76.20
23562;DHT22;11959;49.418;8.728;2023-06-14T14:09:57;25.10;75.00
23562;DHT22;11959;49.418;8.728;2023-06-14T14:12:23;25.10;75.90
23562;DHT22;11959;49.418;8.728;2023-06-14T14:14:50;25.00;75.50
23562;DHT22;11959;49.418;8.728;2023-06-14T14:17:16;25.00;75.40
23562;DHT22;11959;49.418;8.728;2023-06-14T14:19:43;25.10;76.60
23562;DHT22;11959;49.418;8.728;2023-06-14T14:22:08;25.30;78.50
23562;DHT22;11959;49.418;8.728;2023-06-14T14:24:34;25.50;75.10
23562;DHT22;11959;49.418;8.728;2023-06-14T14:27:00;25.60;74.80
23562;DHT22;11959;49.418;8.728;2023-06-14T14:29:26;25.70;75.00
23562;DHT22;11959;49.418;8.728;2023-06-14T14:31:54;25.70;75.30
23562;DHT22;11959;49.418;8.728;2023-06-14T14:34:21;25.80;76.10
23562;DHT22;11959;49.418;8.728;2023-06-14T14:36:46;25.90;76.90
23562;DHT22;11959;49.418;8.728;2023-06-14T14:39:12;25.80;75.50
23562;DHT22;11959;49.418;8.728;2023-06-14T14:41:37;26.00;76.90
23562;DHT22;11959;49.418;8.728;2023-06-14T14:44:05;26.10;76.20
23562;DHT22;11959;49.418;8.728;2023-06-14T14:46:31;26.20;75.60
23562;DHT22;11959;49.418;8.728;2023-06-14T14:48:58;26.30;74.70
23562;DHT22;11959;49.418;8.728;2023-06-14T14:51:23;26.40;74.20
23562;DHT22;11959;49.418;8.728;2023-06-14T14:53:49;26.40;74.60
23562;DHT22;11959;49.418;8.728;2023-06-14T14:56:15;26.40;74.80
23562;DHT22;11959;49.418;8.728;2023-06-14T14:58:40;26.40;74.10
23562;DHT22;11959;49.418;8.728;2023-06-14T15:01:06;26.40;74.30
23562;DHT22;11959;49.418;8.728;2023-06-14T15:03:32;26.20;74.30
23562;DHT22;11959;49.418;8.728;2023-06-14T15:05:58;26.00;73.70
23562;DHT22;11959;49.418;8.728;2023-06-14T15:08:23;25.80;73.30
23562;DHT22;11959;49.418;8.728;2023-06-14T15:10:49;25.70;74.50
23562;DHT22;11959;49.418;8.728;2023-06-14T15:13:15;25.50;75.10
23562;DHT22;11959;49.418;8.728;2023-06-14T15:15:40;25.50;75.80
23562;DHT22;11959;49.418;8.728;2023-06-14T15:18:06;25.50;75.30
23562;DHT22;11959;49.418;8.728;2023-06-14T15:20:32;25.80;76.00
23562;DHT22;11959;49.418;8.728;2023-06-14T15:22:57;26.00;75.60
23562;DHT22;11959;49.418;8.728;2023-06-14T15:25:28;26.20;72.70
23562;DHT22;11959;49.418;8.728;2023-06-14T15:27:55;26.30;75.10
23562;DHT22;11959;49.418;8.728;2023-06-14T15:30:21;26.50;75.40
23562;DHT22;11959;49.418;8.728;2023-06-14T15:32:47;26.70;74.30
23562;DHT22;11959;49.418;8.728;2023-06-14T15:35:14;26.80;73.90
23562;DHT22;11959;49.418;8.728;2023-06-14T15:37:40;26.80;75.00
23562;DHT22;11959;49.418;8.728;2023-06-14T15:40:06;26.70;74.60
23562;DHT22;11959;49.418;8.728;2023-06-14T15:42:32;26.60;74.90
23562;DHT22;11959;49.418;8.728;2023-06-14T15:44:57;26.40;74.30
23562;DHT22;11959;49.418;8.728;2023-06-14T15:47:23;26.20;74.50
23562;DHT22;11959;49.418;8.728;2023-06-14T15:49:49;26.10;75.30